createdAt,value
2022-08-03T00:01:49.627Z,5.43
2022-08-03T00:04:16.678Z,5.97
2022-08-03T00:06:43.137Z,3.90
2022-08-03T00:09:09.770Z,6.70
2022-08-03T00:11:37.363Z,3.95
2022-08-03T00:14:05.733Z,4.20
2022-08-03T00:16:32.851Z,5.20
2022-08-03T00:19:00.773Z,5.57
2022-08-03T00:21:28.435Z,5.50
2022-08-03T00:23:55.207Z,3.45
2022-08-03T00:26:22.450Z,6.18
2022-08-03T00:28:49.761Z,6.18
2022-08-03T00:31:19.763Z,4.60
2022-08-03T00:34:03.368Z,6.00
2022-08-03T00:36:30.376Z,4.43
2022-08-03T00:38:56.843Z,4.90
2022-08-03T00:41:23.304Z,4.97
2022-08-03T00:43:50.317Z,4.82
2022-08-03T00:46:21.408Z,5.10
2022-08-03T00:48:52.120Z,5.53
2022-08-03T00:51:20.771Z,6.05
2022-08-03T00:53:47.559Z,5.57
2022-08-03T00:56:15.773Z,5.88
2022-08-03T00:58:43.792Z,6.15
2022-08-03T01:01:12.261Z,5.15
2022-08-03T01:03:39.270Z,5.03
2022-08-03T01:06:19.256Z,5.35
2022-08-03T01:09:00.600Z,4.13
2022-08-03T01:12:01.003Z,4.15
2022-08-03T01:14:38.728Z,5.35
2022-08-03T01:17:21.203Z,6.13
2022-08-03T01:19:52.848Z,5.82
2022-08-03T01:22:57.589Z,5.10
2022-08-03T01:25:28.901Z,4.88
2022-08-03T01:28:02.698Z,4.25
2022-08-03T01:30:35.692Z,4.27
2022-08-03T01:33:12.397Z,4.70
2022-08-03T01:35:49.061Z,4.40
2022-08-03T01:38:22.079Z,12.93
2022-08-03T01:40:52.259Z,5.05
2022-08-03T01:44:26.732Z,4.90
2022-08-03T01:46:09.024Z,4.60
2022-08-03T01:48:39.090Z,4.70
2022-08-03T01:51:09.219Z,5.13
2022-08-03T01:53:36.935Z,5.50
2022-08-03T01:56:06.244Z,5.20
2022-08-03T01:58:35.470Z,5.55
2022-08-03T02:01:05.015Z,6.60
2022-08-03T02:03:36.432Z,5.07
2022-08-03T02:07:00.281Z,6.00
2022-08-03T02:08:53.019Z,4.68
2022-08-03T02:11:20.586Z,4.63
2022-08-03T02:13:48.477Z,4.50
2022-08-03T02:16:14.951Z,6.13
2022-08-03T02:18:42.563Z,7.35
2022-08-03T02:21:11.833Z,6.30
2022-08-03T02:23:58.564Z,5.20
2022-08-03T02:26:28.921Z,5.65
2022-08-03T02:28:58.527Z,5.72
2022-08-03T02:31:30.925Z,5.97
2022-08-03T02:34:03.069Z,6.97
2022-08-03T02:36:33.048Z,6.78
2022-08-03T02:39:02.121Z,5.88
2022-08-03T02:41:35.774Z,5.25
2022-08-03T02:44:07.960Z,6.40
2022-08-03T02:46:38.439Z,5.88
2022-08-03T02:49:49.446Z,4.53
2022-08-03T02:51:55.093Z,4.78
2022-08-03T02:54:25.229Z,8.10
2022-08-03T02:56:53.766Z,5.60
2022-08-03T02:59:21.657Z,5.80
2022-08-03T03:01:48.948Z,7.03
2022-08-03T03:04:17.062Z,5.30
2022-08-03T03:06:44.563Z,7.30
2022-08-03T03:09:14.475Z,6.75
2022-08-03T03:11:42.386Z,7.28
2022-08-03T03:14:11.298Z,7.53
2022-08-03T03:16:40.531Z,5.15
2022-08-03T03:19:08.421Z,4.45
2022-08-03T03:21:36.636Z,5.32
2022-08-03T03:24:05.263Z,5.18
2022-08-03T03:26:32.987Z,4.55
2022-08-03T03:28:59.691Z,5.50
2022-08-03T03:31:26.119Z,6.50
2022-08-03T03:33:52.876Z,7.63
2022-08-03T03:36:19.426Z,5.68
2022-08-03T03:38:45.828Z,6.30
2022-08-03T03:41:12.728Z,7.00
2022-08-03T03:43:39.131Z,6.22
2022-08-03T03:46:05.593Z,6.93
2022-08-03T03:48:32.387Z,6.22
2022-08-03T03:50:59.180Z,6.25
2022-08-03T03:53:25.537Z,6.15
2022-08-03T03:55:59.406Z,9.40
2022-08-03T03:58:28.687Z,21.15
2022-08-03T04:00:55.933Z,7.43
2022-08-03T04:03:22.374Z,6.43
2022-08-03T04:06:08.043Z,6.07
2022-08-03T04:08:52.751Z,5.07
2022-08-03T04:11:32.242Z,5.20
2022-08-03T04:14:24.882Z,7.00
2022-08-03T04:17:07.500Z,5.18
2022-08-03T04:19:40.634Z,4.47
2022-08-03T04:22:11.684Z,4.88
2022-08-03T04:24:50.732Z,5.55
2022-08-03T04:27:22.320Z,6.07
2022-08-03T04:29:52.972Z,6.55
2022-08-03T04:32:23.841Z,5.30
2022-08-03T04:34:50.582Z,6.13
2022-08-03T04:37:43.558Z,6.82
2022-08-03T04:40:14.506Z,6.15
2022-08-03T04:42:43.919Z,5.50
2022-08-03T04:45:16.157Z,7.15
2022-08-03T04:47:43.164Z,5.43
2022-08-03T04:50:12.936Z,5.25
2022-08-03T04:52:40.796Z,6.20
2022-08-03T04:55:08.054Z,6.88
2022-08-03T04:57:34.483Z,5.47
2022-08-03T05:00:02.983Z,7.55
2022-08-03T05:02:31.149Z,5.10
2022-08-03T05:04:58.043Z,8.43
2022-08-03T05:07:25.375Z,4.93
2022-08-03T05:09:57.547Z,6.90
2022-08-03T05:12:32.529Z,6.57
2022-08-03T05:15:00.270Z,7.22
2022-08-03T05:17:26.729Z,6.63
2022-08-03T05:19:53.096Z,8.10
2022-08-03T05:22:20.135Z,5.47
2022-08-03T05:24:47.031Z,6.90
2022-08-03T05:27:19.488Z,5.82
2022-08-03T05:29:47.174Z,6.40
2022-08-03T05:32:13.642Z,5.70
2022-08-03T05:34:40.379Z,8.80
2022-08-03T05:37:07.347Z,9.15
2022-08-03T05:39:34.698Z,10.00
2022-08-03T05:42:02.205Z,7.30
2022-08-03T05:44:28.764Z,6.50
2022-08-03T05:46:57.263Z,5.38
2022-08-03T05:49:24.084Z,5.90
2022-08-03T05:52:00.388Z,4.80
2022-08-03T05:54:56.120Z,10.10
2022-08-03T05:57:22.368Z,7.65
2022-08-03T05:59:54.010Z,7.78
2022-08-03T06:02:28.404Z,4.68
2022-08-03T06:04:55.303Z,4.95
2022-08-03T06:07:21.713Z,4.15
2022-08-03T06:10:34.040Z,6.00
2022-08-03T06:12:36.485Z,4.95
2022-08-03T06:15:04.748Z,3.65
2022-08-03T06:17:37.221Z,4.32
2022-08-03T06:20:06.075Z,2.33
2022-08-03T06:22:32.983Z,4.22
2022-08-03T06:25:04.181Z,6.18
2022-08-03T06:27:37.139Z,3.40
2022-08-03T06:30:05.091Z,4.82
2022-08-03T06:32:31.558Z,3.75
2022-08-03T06:34:57.924Z,4.75
2022-08-03T06:37:24.879Z,4.03
2022-08-03T06:39:51.236Z,2.65
2022-08-03T06:42:17.935Z,2.88
2022-08-03T06:44:47.409Z,3.85
2022-08-03T06:47:13.757Z,2.42
2022-08-03T06:49:41.371Z,4.00
2022-08-03T06:52:08.136Z,3.63
2022-08-03T06:54:35.713Z,3.08
2022-08-03T06:57:02.336Z,4.38
2022-08-03T07:00:09.790Z,4.47
2022-08-03T07:02:19.439Z,4.85
2022-08-03T07:04:48.140Z,3.85
2022-08-03T07:07:14.511Z,3.90
2022-08-03T07:09:40.854Z,2.85
2022-08-03T07:12:08.810Z,6.28
2022-08-03T07:14:35.251Z,2.85
2022-08-03T07:17:01.655Z,4.28
2022-08-03T07:19:31.580Z,4.97
2022-08-03T07:22:02.329Z,3.38
2022-08-03T07:24:30.856Z,3.72
2022-08-03T07:26:57.488Z,3.55
2022-08-03T07:29:24.371Z,4.13
2022-08-03T07:31:50.732Z,3.35
2022-08-03T07:34:17.127Z,3.10
2022-08-03T07:36:43.921Z,3.78
2022-08-03T07:39:15.329Z,4.28
2022-08-03T07:41:44.371Z,3.60
2022-08-03T07:44:11.316Z,4.78
2022-08-03T07:46:37.693Z,2.67
2022-08-03T07:49:04.236Z,5.40
2022-08-03T07:51:31.227Z,2.13
2022-08-03T07:53:57.726Z,1.40
2022-08-03T07:56:27.212Z,2.45
2022-08-03T07:58:54.973Z,2.95
2022-08-03T08:01:22.304Z,2.30
2022-08-03T08:03:53.319Z,1.90
2022-08-03T08:06:21.798Z,1.85
2022-08-03T08:08:48.224Z,5.13
2022-08-03T08:11:14.927Z,2.35
2022-08-03T08:13:41.844Z,2.58
2022-08-03T08:16:08.287Z,2.15
2022-08-03T08:18:34.649Z,1.92
2022-08-03T08:21:03.121Z,3.55
2022-08-03T08:23:42.931Z,3.80
2022-08-03T08:26:11.403Z,1.95
2022-08-03T08:28:38.163Z,3.45
2022-08-03T08:31:04.625Z,4.93
2022-08-03T08:34:02.532Z,2.13
2022-08-03T08:36:18.487Z,2.30
2022-08-03T08:38:45.115Z,1.67
2022-08-03T08:41:13.085Z,2.53
2022-08-03T08:43:40.728Z,2.42
2022-08-03T08:46:10.034Z,4.50
2022-08-03T08:48:41.897Z,3.70
2022-08-03T08:51:09.327Z,2.70
2022-08-03T08:53:37.720Z,2.13
2022-08-03T08:56:05.738Z,2.35
2022-08-03T08:58:38.175Z,2.00
2022-08-03T09:03:34.447Z,3.97
2022-08-03T09:06:02.645Z,1.73
2022-08-03T09:08:31.189Z,1.52
2022-08-03T09:10:57.939Z,1.42
2022-08-03T09:13:24.751Z,2.25
2022-08-03T09:16:15.295Z,1.40
2022-08-03T09:18:44.282Z,3.05
2022-08-03T09:21:31.311Z,4.07
2022-08-03T09:24:03.191Z,1.98
2022-08-03T09:26:31.572Z,1.77
2022-08-03T09:29:07.146Z,2.58
2022-08-03T09:31:46.497Z,1.45
2022-08-03T09:34:15.180Z,1.60
2022-08-03T09:36:47.387Z,1.17
2022-08-03T09:39:14.697Z,4.07
2022-08-03T09:42:02.563Z,1.35
2022-08-03T09:44:43.572Z,1.65
2022-08-03T09:47:12.084Z,1.92
2022-08-03T09:49:41.614Z,1.40
2022-08-03T09:52:37.850Z,1.73
2022-08-03T09:56:30.773Z,1.55
2022-08-03T09:58:09.749Z,1.92
2022-08-03T10:00:54.694Z,1.25
2022-08-03T10:03:21.882Z,1.75
2022-08-03T10:05:48.873Z,1.30
2022-08-03T10:08:17.335Z,1.50
2022-08-03T10:10:45.380Z,2.42
2022-08-03T10:13:17.846Z,1.85
2022-08-03T10:16:23.292Z,1.63
2022-08-03T10:18:32.905Z,2.45
2022-08-03T10:21:04.661Z,3.25
2022-08-03T10:23:35.850Z,2.42
2022-08-03T10:26:04.147Z,1.38
2022-08-03T10:28:45.315Z,1.17
2022-08-03T10:31:13.944Z,1.80
2022-08-03T10:33:51.568Z,2.05
2022-08-03T10:36:23.716Z,0.93
2022-08-03T10:38:53.445Z,1.30
2022-08-03T10:41:21.864Z,1.70
2022-08-03T10:43:58.525Z,0.85
2022-08-03T10:46:27.657Z,1.73
2022-08-03T10:48:56.529Z,1.88
2022-08-03T10:51:23.568Z,1.13
2022-08-03T10:53:55.357Z,3.20
2022-08-03T10:56:53.535Z,1.33
2022-08-03T10:59:46.475Z,2.65
2022-08-03T11:02:14.234Z,1.67
2022-08-03T11:04:41.484Z,1.35
2022-08-03T11:07:24.199Z,1.95
2022-08-03T11:09:51.804Z,1.50
2022-08-03T11:12:30.071Z,1.42
2022-08-03T11:15:06.236Z,1.20
2022-08-03T11:17:46.788Z,1.50
2022-08-03T11:20:48.513Z,2.97
2022-08-03T11:23:16.901Z,3.53
2022-08-03T11:26:22.500Z,0.88
2022-08-03T11:28:49.311Z,2.30
2022-08-03T11:31:46.688Z,1.75
2022-08-03T11:34:14.415Z,1.63
2022-08-03T11:37:19.968Z,2.57
2022-08-03T11:39:48.343Z,1.85
2022-08-03T11:42:24.646Z,2.70
2022-08-03T11:44:56.247Z,1.63
2022-08-03T11:47:24.740Z,1.10
2022-08-03T11:49:53.941Z,1.15
2022-08-03T11:52:26.753Z,1.38
2022-08-03T11:54:56.730Z,1.85
2022-08-03T11:59:01.178Z,1.20
2022-08-03T12:00:32.615Z,1.13
2022-08-03T12:03:08.957Z,3.03
2022-08-03T12:05:51.243Z,2.05
2022-08-03T12:08:39.973Z,1.05
2022-08-03T12:11:08.675Z,0.80
2022-08-03T12:14:45.594Z,0.80
2022-08-03T12:16:31.143Z,2.08
2022-08-03T12:19:06.784Z,2.00
2022-08-03T12:21:33.356Z,0.80
2022-08-03T12:24:02.016Z,1.13
2022-08-03T12:26:30.355Z,0.90
2022-08-03T12:28:57.731Z,1.10
2022-08-03T12:31:24.807Z,1.77
2022-08-03T12:34:02.268Z,1.10
2022-08-03T12:36:30.606Z,1.63
2022-08-03T12:39:01.124Z,1.00
2022-08-03T12:41:34.190Z,1.27
2022-08-03T12:44:03.238Z,1.10
2022-08-03T12:46:32.239Z,0.80
2022-08-03T12:49:15.699Z,8.80
2022-08-03T12:51:42.057Z,1.98
2022-08-03T12:54:10.290Z,0.82
2022-08-03T12:56:57.673Z,2.22
2022-08-03T12:59:32.500Z,3.55
2022-08-03T13:02:02.864Z,0.90
2022-08-03T13:04:36.182Z,1.20
2022-08-03T13:07:04.555Z,1.83
2022-08-03T13:09:49.054Z,0.63
2022-08-03T13:12:18.001Z,1.95
2022-08-03T13:14:47.451Z,0.95
2022-08-03T13:17:14.003Z,1.20
2022-08-03T13:19:40.837Z,0.88
2022-08-03T13:22:20.687Z,1.35
2022-08-03T13:24:50.029Z,2.88
2022-08-03T13:28:04.928Z,1.75
2022-08-03T13:30:04.066Z,1.15
2022-08-03T13:32:30.712Z,1.30
2022-08-03T13:34:57.171Z,1.20
2022-08-03T13:37:24.291Z,3.80
2022-08-03T13:39:59.692Z,1.17
2022-08-03T13:42:30.887Z,1.10
2022-08-03T13:44:57.820Z,0.90
2022-08-03T13:47:24.489Z,1.10
2022-08-03T13:49:54.134Z,1.67
2022-08-03T13:52:32.929Z,1.13
2022-08-03T13:55:00.545Z,1.15
2022-08-03T13:58:03.562Z,1.95
2022-08-03T14:00:26.650Z,2.95
2022-08-03T14:03:02.737Z,1.45
2022-08-03T14:05:32.424Z,0.82
2022-08-03T14:08:04.856Z,4.60
2022-08-03T14:10:33.352Z,1.88
2022-08-03T14:13:00.337Z,1.33
2022-08-03T14:15:28.900Z,1.38
2022-08-03T14:17:56.157Z,1.02
2022-08-03T14:20:37.195Z,1.20
2022-08-03T14:23:07.177Z,2.58
2022-08-03T14:25:44.487Z,3.72
2022-08-03T14:28:18.859Z,0.90
2022-08-03T14:30:46.476Z,4.85
2022-08-03T14:33:12.843Z,1.17
2022-08-03T14:35:39.411Z,1.00
2022-08-03T14:38:06.483Z,0.98
2022-08-03T14:40:32.902Z,1.38
2022-08-03T14:42:59.290Z,1.60
2022-08-03T14:45:26.054Z,2.03
2022-08-03T14:50:32.076Z,1.63
2022-08-03T14:50:44.202Z,1.77
2022-08-03T14:53:12.177Z,1.20
2022-08-03T14:55:50.482Z,1.52
2022-08-03T14:58:23.022Z,2.50
2022-08-03T15:00:51.028Z,4.32
2022-08-03T15:03:23.976Z,3.58
2022-08-03T15:05:55.233Z,1.48
2022-08-03T15:08:23.508Z,2.72
2022-08-03T15:10:50.398Z,2.70
2022-08-03T15:13:17.802Z,0.80
2022-08-03T15:15:44.275Z,1.63
2022-08-03T15:18:10.816Z,2.53
2022-08-03T15:20:44.978Z,1.10
2022-08-03T15:23:14.530Z,4.35
2022-08-03T15:26:28.152Z,0.88
2022-08-03T15:28:30.232Z,2.17
2022-08-03T15:30:57.025Z,4.05
2022-08-03T15:33:23.429Z,1.95
2022-08-03T15:35:50.125Z,2.53
2022-08-03T15:38:17.257Z,1.25
2022-08-03T15:40:43.886Z,0.95
2022-08-03T15:43:10.456Z,2.10
2022-08-03T15:45:37.581Z,1.70
2022-08-03T15:48:05.428Z,1.27
2022-08-03T15:50:31.870Z,3.63
2022-08-03T15:52:58.631Z,4.03
2022-08-03T15:55:25.149Z,2.70
2022-08-03T15:59:04.117Z,2.60
2022-08-03T16:00:39.020Z,1.23
2022-08-03T16:03:06.223Z,2.00
2022-08-03T16:05:32.620Z,1.58
2022-08-03T16:08:03.700Z,4.97
2022-08-03T16:10:32.136Z,1.08
2022-08-03T16:13:00.521Z,1.25
2022-08-03T16:15:27.052Z,1.30
2022-08-03T16:17:53.446Z,2.10
2022-08-03T16:20:29.222Z,1.55
2022-08-03T16:23:10.846Z,1.20
2022-08-03T16:25:44.262Z,1.92
2022-08-03T16:28:16.386Z,1.90
2022-08-03T16:30:45.621Z,1.30
2022-08-03T16:33:16.968Z,1.67
2022-08-03T16:35:44.581Z,1.25
2022-08-03T16:38:16.527Z,2.72
2022-08-03T16:40:45.716Z,0.90
2022-08-03T16:43:18.979Z,1.15
2022-08-03T16:45:47.347Z,1.20
2022-08-03T16:48:17.420Z,2.05
2022-08-03T16:50:44.614Z,3.05
2022-08-03T16:53:17.102Z,2.28
2022-08-03T16:55:59.213Z,3.72
2022-08-03T16:58:41.307Z,1.23
2022-08-03T17:01:24.735Z,1.50
2022-08-03T17:04:03.247Z,1.10
2022-08-03T17:06:35.350Z,3.13
2022-08-03T17:09:10.851Z,1.92
2022-08-03T17:11:46.439Z,3.00
2022-08-03T17:14:15.359Z,1.40
2022-08-03T17:16:53.042Z,2.65
2022-08-03T17:19:23.708Z,5.30
2022-08-03T17:21:58.635Z,2.92
2022-08-03T17:24:45.551Z,1.95
2022-08-03T17:28:42.168Z,1.40
2022-08-03T17:30:12.139Z,5.03
2022-08-03T17:32:42.894Z,1.33
2022-08-03T17:35:20.883Z,1.70
2022-08-03T17:37:57.365Z,6.80
2022-08-03T17:40:31.758Z,2.03
2022-08-03T17:43:00.181Z,2.35
2022-08-03T17:45:52.117Z,4.57
2022-08-03T17:48:18.478Z,1.83
2022-08-03T17:50:51.646Z,1.42
2022-08-03T17:53:28.807Z,3.90
2022-08-03T17:56:44.723Z,2.35
2022-08-03T17:59:08.569Z,1.35
2022-08-03T18:02:22.275Z,2.35
2022-08-03T18:05:03.283Z,2.63
2022-08-03T18:08:01.644Z,4.07
2022-08-03T18:10:35.251Z,2.70
2022-08-03T18:13:10.467Z,3.10
2022-08-03T18:15:51.784Z,2.08
2022-08-03T18:18:32.217Z,2.80
2022-08-03T18:21:06.563Z,1.98
2022-08-03T18:23:37.653Z,2.30
2022-08-03T18:26:10.684Z,1.40
2022-08-03T18:28:39.217Z,2.17
2022-08-03T18:31:07.089Z,3.25
2022-08-03T18:34:18.615Z,3.53
2022-08-03T18:36:30.223Z,2.85
2022-08-03T18:39:02.469Z,5.40
2022-08-03T18:41:33.672Z,2.95
2022-08-03T18:44:06.650Z,2.13
2022-08-03T18:46:50.345Z,2.60
2022-08-03T18:49:32.484Z,2.50
2022-08-03T18:52:15.765Z,1.30
2022-08-03T18:55:20.002Z,4.30
2022-08-03T18:57:59.492Z,3.65
2022-08-03T19:00:42.559Z,3.22
2022-08-03T19:03:25.346Z,1.30
2022-08-03T19:06:19.699Z,2.10
2022-08-03T19:08:53.892Z,1.88
2022-08-03T19:12:14.476Z,2.05
2022-08-03T19:14:23.148Z,5.05
2022-08-03T19:17:04.400Z,1.60
2022-08-03T19:19:43.373Z,2.30
2022-08-03T19:22:16.104Z,2.95
2022-08-03T19:24:47.665Z,1.80
2022-08-03T19:27:16.041Z,1.70
2022-08-03T19:29:58.823Z,3.83
2022-08-03T19:32:29.397Z,3.20
2022-08-03T19:34:57.244Z,4.63
2022-08-03T19:37:27.441Z,2.05
2022-08-03T19:40:10.373Z,2.17
2022-08-03T19:42:44.195Z,2.58
2022-08-03T19:45:14.816Z,1.88
2022-08-03T19:48:10.133Z,1.40
2022-08-03T19:50:37.940Z,2.30
2022-08-03T19:53:12.989Z,3.03
2022-08-03T19:55:48.141Z,2.88
2022-08-03T19:58:17.829Z,3.05
2022-08-03T20:00:55.797Z,2.47
2022-08-03T20:03:23.495Z,2.42
2022-08-03T20:05:51.879Z,1.80
2022-08-03T20:08:21.339Z,2.33
2022-08-03T20:10:49.312Z,2.78
2022-08-03T20:13:19.369Z,3.45
2022-08-03T20:15:46.536Z,2.17
2022-08-03T20:21:15.074Z,2.63
2022-08-03T20:24:01.612Z,3.83
2022-08-03T20:26:30.642Z,4.40
2022-08-03T20:29:08.917Z,3.47
2022-08-03T20:31:37.817Z,3.53
2022-08-03T20:34:06.170Z,2.20
2022-08-03T20:36:32.719Z,3.50
2022-08-03T20:38:59.826Z,2.65
2022-08-03T20:41:26.566Z,1.73
2022-08-03T20:43:53.038Z,2.75
2022-08-03T20:46:28.512Z,2.65
2022-08-03T20:48:58.837Z,2.33
2022-08-03T20:51:49.973Z,2.03
2022-08-03T20:54:22.442Z,2.25
2022-08-03T20:56:56.877Z,3.15
2022-08-03T20:59:24.277Z,2.03
2022-08-03T21:01:50.656Z,2.85
2022-08-03T21:04:20.868Z,2.55
2022-08-03T21:06:53.905Z,2.25
2022-08-03T21:09:24.865Z,3.85
2022-08-03T21:12:03.291Z,3.03
2022-08-03T21:13:09.879Z,2.50
2022-08-03T21:14:32.826Z,2.33
2022-08-03T21:17:09.403Z,2.45
2022-08-03T21:19:52.118Z,4.53
2022-08-03T21:22:22.622Z,4.93
2022-08-03T21:24:54.336Z,3.13
2022-08-03T21:27:24.276Z,2.65
2022-08-03T21:29:53.455Z,3.53
2022-08-03T21:32:32.378Z,2.17
2022-08-03T21:35:02.629Z,2.28
2022-08-03T21:37:29.628Z,3.10
2022-08-03T21:39:56.555Z,2.38
2022-08-03T21:42:23.786Z,2.95
2022-08-03T21:44:52.667Z,3.70
2022-08-03T21:47:22.059Z,2.90
2022-08-03T21:50:08.342Z,3.17
2022-08-03T21:52:42.079Z,3.20
2022-08-03T21:55:09.120Z,3.80
2022-08-03T21:57:51.087Z,2.80
2022-08-03T22:00:19.964Z,2.80
2022-08-03T22:02:54.547Z,3.85
2022-08-03T22:05:28.905Z,2.55
2022-08-03T22:08:09.999Z,3.28
2022-08-03T22:10:36.926Z,4.82
2022-08-03T22:13:03.356Z,2.55
2022-08-03T22:15:31.026Z,2.60
2022-08-03T22:17:59.056Z,2.53
2022-08-03T22:20:25.851Z,2.45
2022-08-03T22:22:59.766Z,2.70
2022-08-03T22:25:29.661Z,2.40
2022-08-03T22:27:58.381Z,2.67
2022-08-03T22:30:25.783Z,3.90
2022-08-03T22:32:55.051Z,2.55
2022-08-03T22:35:25.171Z,2.88
2022-08-03T22:37:54.912Z,3.28
2022-08-03T22:40:22.035Z,3.58
2022-08-03T22:42:49.533Z,4.18
2022-08-03T22:46:07.945Z,2.45
2022-08-03T22:48:08.156Z,2.13
2022-08-03T22:50:35.036Z,5.93
2022-08-03T22:53:01.485Z,2.50
2022-08-03T22:55:28.064Z,2.70
2022-08-03T22:57:56.154Z,4.72
2022-08-03T23:00:23.316Z,5.07
2022-08-03T23:02:52.262Z,4.65
2022-08-03T23:06:01.900Z,3.47
2022-08-03T23:08:15.406Z,2.80
2022-08-03T23:10:46.692Z,3.67
2022-08-03T23:13:16.346Z,3.42
2022-08-03T23:15:51.126Z,4.22
2022-08-03T23:18:20.851Z,3.17
2022-08-03T23:20:51.513Z,2.90
2022-08-03T23:23:20.584Z,3.08
2022-08-03T23:25:50.094Z,2.45
2022-08-03T23:28:17.310Z,4.25
2022-08-03T23:30:47.429Z,3.15
2022-08-03T23:33:15.085Z,3.90
2022-08-03T23:36:28.420Z,3.17
2022-08-03T23:38:45.899Z,2.60
2022-08-03T23:41:13.685Z,2.58
2022-08-03T23:43:52.193Z,2.40
2022-08-03T23:46:26.120Z,4.00
2022-08-03T23:48:53.786Z,2.90
2022-08-03T23:51:34.575Z,4.78
2022-08-03T23:54:21.511Z,3.28
2022-08-03T23:56:59.603Z,2.72
2022-08-03T23:59:43.798Z,3.33
